createdAt,value
2022-08-22T00:00:42.864Z,1.04
2022-08-22T00:01:40.421Z,1.04
2022-08-22T00:02:40.556Z,1.04
2022-08-22T00:03:40.653Z,1.04
2022-08-22T00:04:40.816Z,1.04
2022-08-22T00:05:40.918Z,1.04
2022-08-22T00:06:41.026Z,1.04
2022-08-22T00:07:41.178Z,1.04
2022-08-22T00:08:41.326Z,1.04
2022-08-22T00:09:41.477Z,1.04
2022-08-22T00:10:41.577Z,1.04
2022-08-22T00:11:41.679Z,1.04
2022-08-22T00:12:41.831Z,1.04
2022-08-22T00:13:41.941Z,1.04
2022-08-22T00:14:42.110Z,1.04
2022-08-22T00:15:44.132Z,1.04
2022-08-22T00:16:42.395Z,1.04
2022-08-22T00:17:42.571Z,1.04
2022-08-22T00:18:42.698Z,1.04
2022-08-22T00:19:42.798Z,1.04
2022-08-22T00:20:42.954Z,1.04
2022-08-22T00:21:43.055Z,1.04
2022-08-22T00:22:43.202Z,1.04
2022-08-22T00:23:43.305Z,1.04
2022-08-22T00:24:43.462Z,1.04
2022-08-22T00:25:43.561Z,1.04
2022-08-22T00:26:45.388Z,1.04
2022-08-22T00:27:45.108Z,1.04
2022-08-22T00:28:43.912Z,1.04
2022-08-22T00:29:44.017Z,1.04
2022-08-22T00:30:44.114Z,1.04
2022-08-22T00:31:44.221Z,1.04
2022-08-22T00:32:44.323Z,1.04
2022-08-22T00:33:44.472Z,1.04
2022-08-22T00:34:44.576Z,1.04
2022-08-22T00:35:45.314Z,1.04
2022-08-22T00:36:47.762Z,1.04
2022-08-22T00:37:44.988Z,1.04
2022-08-22T00:38:45.084Z,1.04
2022-08-22T00:39:45.259Z,1.04
2022-08-22T00:40:45.284Z,1.04
2022-08-22T00:41:45.390Z,1.04
2022-08-22T00:42:45.506Z,1.04
2022-08-22T00:43:45.645Z,1.04
2022-08-22T00:44:45.742Z,1.04
2022-08-22T00:45:45.897Z,1.04
2022-08-22T00:46:46.011Z,1.04
2022-08-22T00:47:46.151Z,1.04
2022-08-22T00:48:46.251Z,1.04
2022-08-22T00:49:46.355Z,1.04
2022-08-22T00:50:46.455Z,1.04
2022-08-22T00:51:46.610Z,1.04
2022-08-22T00:52:46.710Z,1.04
2022-08-22T00:53:46.886Z,1.04
2022-08-22T00:54:47.011Z,1.04
2022-08-22T00:55:47.165Z,1.04
2022-08-22T00:56:47.318Z,1.04
2022-08-22T00:57:47.419Z,1.04
2022-08-22T00:58:47.596Z,1.04
2022-08-22T00:59:47.672Z,1.04
2022-08-22T01:00:47.829Z,1.04
2022-08-22T01:01:47.931Z,1.04
2022-08-22T01:02:51.908Z,1.04
2022-08-22T01:03:48.210Z,1.04
2022-08-22T01:04:48.285Z,1.04
2022-08-22T01:05:48.433Z,1.04
2022-08-22T01:06:48.535Z,1.04
2022-08-22T01:07:48.640Z,1.04
2022-08-22T01:08:48.746Z,1.04
2022-08-22T01:09:48.841Z,1.04
2022-08-22T01:10:48.992Z,1.04
2022-08-22T01:11:49.096Z,1.04
2022-08-22T01:12:49.210Z,1.04
2022-08-22T01:13:49.346Z,1.04
2022-08-22T01:14:49.504Z,1.04
2022-08-22T01:15:49.606Z,1.04
2022-08-22T01:16:49.752Z,1.04
2022-08-22T01:17:49.859Z,1.04
2022-08-22T01:18:50.011Z,1.04
2022-08-22T01:19:50.109Z,1.04
2022-08-22T01:20:50.209Z,1.04
2022-08-22T01:21:50.321Z,1.04
2022-08-22T01:22:50.468Z,1.04
2022-08-22T01:23:50.566Z,1.04
2022-08-22T01:24:50.669Z,1.04
2022-08-22T01:25:50.869Z,1.04
2022-08-22T01:26:50.877Z,1.04
2022-08-22T01:27:51.014Z,1.04
2022-08-22T01:28:51.129Z,1.04
2022-08-22T01:29:51.237Z,1.04
2022-08-22T01:30:51.335Z,1.04
2022-08-22T01:31:51.445Z,1.04
2022-08-22T01:32:53.938Z,1.04
2022-08-22T01:33:51.689Z,1.04
2022-08-22T01:34:51.789Z,1.04
2022-08-22T01:35:51.889Z,1.04
2022-08-22T01:36:51.996Z,1.04
2022-08-22T01:37:52.092Z,1.04
2022-08-22T01:38:52.196Z,1.04
2022-08-22T01:39:52.317Z,1.04
2022-08-22T01:40:53.679Z,1.04
2022-08-22T01:41:52.601Z,1.04
2022-08-22T01:42:52.754Z,1.04
2022-08-22T01:44:00.302Z,1.04
2022-08-22T01:44:53.010Z,1.04
2022-08-22T01:45:53.112Z,1.04
2022-08-22T01:46:53.263Z,1.04
2022-08-22T01:47:53.634Z,1.04
2022-08-22T01:48:53.519Z,1.04
2022-08-22T01:49:53.621Z,1.04
2022-08-22T01:50:53.733Z,1.04
2022-08-22T01:51:53.876Z,1.04
2022-08-22T01:52:53.978Z,1.04
2022-08-22T01:53:54.123Z,1.04
2022-08-22T01:54:54.227Z,1.04
2022-08-22T01:55:54.330Z,1.04
2022-08-22T01:56:54.480Z,1.04
2022-08-22T01:57:54.585Z,1.04
2022-08-22T01:58:54.688Z,1.04
2022-08-22T01:59:54.785Z,1.04
2022-08-22T02:00:55.021Z,1.04
2022-08-22T02:01:55.090Z,1.04
2022-08-22T02:02:55.242Z,1.04
2022-08-22T02:03:55.345Z,1.04
2022-08-22T02:04:55.501Z,1.04
2022-08-22T02:05:55.603Z,1.04
2022-08-22T02:06:55.698Z,1.04
2022-08-22T02:07:55.929Z,1.04
2022-08-22T02:08:56.003Z,1.04
2022-08-22T02:09:56.105Z,1.04
2022-08-22T02:10:56.212Z,1.04
2022-08-22T02:11:56.359Z,1.04
2022-08-22T02:12:56.461Z,1.04
2022-08-22T02:13:56.561Z,1.04
2022-08-22T02:14:56.663Z,1.04
2022-08-22T02:15:56.767Z,1.04
2022-08-22T02:16:56.916Z,1.04
2022-08-22T02:17:57.057Z,1.04
2022-08-22T02:18:57.174Z,1.04
2022-08-22T02:19:57.274Z,1.04
2022-08-22T02:20:57.377Z,1.04
2022-08-22T02:21:57.537Z,1.04
2022-08-22T02:22:57.637Z,1.04
2022-08-22T02:23:57.732Z,1.04
2022-08-22T02:24:57.883Z,1.04
2022-08-22T02:25:57.989Z,1.04
2022-08-22T02:26:58.138Z,1.04
2022-08-22T02:27:58.375Z,1.04
2022-08-22T02:28:58.394Z,1.04
2022-08-22T02:29:58.548Z,1.04
2022-08-22T02:30:58.676Z,1.04
2022-08-22T02:31:58.801Z,1.04
2022-08-22T02:32:58.904Z,1.04
2022-08-22T02:33:59.052Z,1.04
2022-08-22T02:34:59.153Z,1.04
2022-08-22T02:35:59.257Z,1.04
2022-08-22T02:36:59.359Z,1.04
2022-08-22T02:37:59.540Z,1.04
2022-08-22T02:38:59.560Z,1.04
2022-08-22T02:39:59.726Z,1.04
2022-08-22T02:40:59.866Z,1.04
2022-08-22T02:42:00.030Z,1.04
2022-08-22T02:43:00.118Z,1.04
2022-08-22T02:44:00.219Z,1.04
2022-08-22T02:45:00.379Z,1.04
2022-08-22T02:46:00.483Z,1.04
2022-08-22T02:47:00.625Z,1.04
2022-08-22T02:48:00.728Z,1.04
2022-08-22T02:49:00.829Z,1.04
2022-08-22T02:50:00.939Z,1.04
2022-08-22T02:51:01.040Z,1.04
2022-08-22T02:52:01.212Z,1.04
2022-08-22T02:53:01.288Z,1.04
2022-08-22T02:54:01.398Z,1.04
2022-08-22T02:55:01.569Z,1.04
2022-08-22T02:56:01.693Z,1.04
2022-08-22T02:57:01.843Z,1.04
2022-08-22T02:58:01.997Z,1.04
2022-08-22T02:59:02.150Z,1.04
2022-08-22T03:00:02.309Z,1.04
2022-08-22T03:01:02.501Z,1.04
2022-08-22T03:02:02.554Z,1.04
2022-08-22T03:03:02.660Z,1.04
2022-08-22T03:04:02.759Z,1.04
2022-08-22T03:05:02.915Z,1.04
2022-08-22T03:06:03.070Z,1.04
2022-08-22T03:07:03.224Z,1.04
2022-08-22T03:08:03.358Z,1.04
2022-08-22T03:09:03.474Z,1.04
2022-08-22T03:10:03.574Z,1.04
2022-08-22T03:11:03.722Z,1.04
2022-08-22T03:12:03.824Z,1.04
2022-08-22T03:13:03.942Z,1.04
2022-08-22T03:14:04.077Z,1.04
2022-08-22T03:15:04.232Z,1.04
2022-08-22T03:16:04.382Z,1.04
2022-08-22T03:17:04.531Z,1.04
2022-08-22T03:18:04.638Z,1.04
2022-08-22T03:19:04.785Z,1.04
2022-08-22T03:20:04.887Z,1.04
2022-08-22T03:21:04.989Z,1.04
2022-08-22T03:22:05.091Z,1.04
2022-08-22T03:23:05.194Z,1.04
2022-08-22T03:24:05.303Z,1.04
2022-08-22T03:25:05.449Z,1.04
2022-08-22T03:26:07.546Z,1.04
2022-08-22T03:27:05.652Z,1.04
2022-08-22T03:28:05.804Z,2
2022-08-22T03:29:05.964Z,2
2022-08-22T03:30:06.064Z,2
2022-08-22T03:31:06.211Z,2
2022-08-22T03:32:06.310Z,3.04
2022-08-22T03:33:06.411Z,3.04
2022-08-22T03:34:06.563Z,3.04
2022-08-22T03:35:06.717Z,4
2022-08-22T03:36:06.821Z,4
2022-08-22T03:37:06.919Z,5.04
2022-08-22T03:38:07.024Z,5.04
2022-08-22T03:39:07.225Z,6
2022-08-22T03:40:07.316Z,7.04
2022-08-22T03:41:07.381Z,9.04
2022-08-22T03:42:07.483Z,10
2022-08-22T03:43:07.585Z,12
2022-08-22T03:44:07.685Z,13.04
2022-08-22T03:45:07.789Z,16
2022-08-22T03:46:07.941Z,18
2022-08-22T03:47:08.041Z,21.04
2022-08-22T03:48:08.193Z,25.04
2022-08-22T03:49:08.345Z,30
2022-08-22T03:50:08.445Z,34
2022-08-22T03:51:08.556Z,40
2022-08-22T03:52:08.709Z,46
2022-08-22T03:53:10.394Z,53.04
2022-08-22T03:54:08.956Z,61.04
2022-08-22T03:55:09.104Z,69.04
2022-08-22T03:56:09.207Z,78
2022-08-22T03:57:09.310Z,88
2022-08-22T03:58:11.937Z,97.04
2022-08-22T03:59:10.344Z,110
2022-08-22T04:00:09.621Z,123.04
2022-08-22T04:01:09.806Z,138
2022-08-22T04:02:24.868Z,154
2022-08-22T04:03:09.969Z,170.08
2022-08-22T04:04:10.070Z,187.04
2022-08-22T04:05:10.194Z,205.12
2022-08-22T04:06:11.636Z,220
2022-08-22T04:07:14.248Z,239.04
2022-08-22T04:08:11.678Z,259.04
2022-08-22T04:09:10.632Z,278.08
2022-08-22T04:10:10.786Z,299.04
2022-08-22T04:11:10.891Z,318.08
2022-08-22T04:12:10.990Z,338.24
2022-08-22T04:13:11.095Z,356.16
2022-08-22T04:14:11.195Z,376
2022-08-22T04:15:11.340Z,395.2
2022-08-22T04:16:11.448Z,416
2022-08-22T04:17:11.546Z,441.28
2022-08-22T04:18:11.650Z,466.24
2022-08-22T04:19:11.751Z,493.12
2022-08-22T04:20:11.905Z,522.24
2022-08-22T04:21:12.042Z,552
2022-08-22T04:22:12.106Z,581.12
2022-08-22T04:23:12.214Z,611.2
2022-08-22T04:24:12.309Z,643.2
2022-08-22T04:25:12.413Z,673.28
2022-08-22T04:26:12.957Z,705.28
2022-08-22T04:27:12.717Z,735.36
2022-08-22T04:28:12.902Z,767.36
2022-08-22T04:29:12.975Z,797.44
2022-08-22T04:30:13.073Z,831.36
2022-08-22T04:31:13.227Z,865.28
2022-08-22T04:32:14.629Z,900.48
2022-08-22T04:33:13.483Z,935.04
2022-08-22T04:34:13.615Z,970.24
2022-08-22T04:35:13.737Z,1004.16
2022-08-22T04:36:13.888Z,1037.44
2022-08-22T04:37:14.034Z,1071.36
2022-08-22T04:38:14.137Z,1106.56
2022-08-22T04:39:14.289Z,1145.6
2022-08-22T04:40:14.437Z,1180.16
2022-08-22T04:41:14.540Z,1211.52
2022-08-22T04:43:14.846Z,1275.52
2022-08-22T04:44:14.949Z,1296
2022-08-22T04:45:15.059Z,1404.16
2022-08-22T04:46:15.205Z,1446.4
2022-08-22T04:47:15.307Z,1493.76
2022-08-22T04:48:15.418Z,1537.28
2022-08-22T04:49:15.510Z,1587.2
2022-08-22T04:50:15.614Z,1635.84
2022-08-22T04:51:15.717Z,1690.88
2022-08-22T04:52:15.863Z,1744.64
2022-08-22T04:53:15.968Z,1799.68
2022-08-22T04:54:16.073Z,1861.12
2022-08-22T04:55:16.171Z,1926.4
2022-08-22T04:56:16.332Z,1998.08
2022-08-22T04:57:16.427Z,2045.44
2022-08-22T04:58:16.528Z,2128.64
2022-08-22T04:59:16.631Z,2177.28
2022-08-22T05:00:16.728Z,2243.84
2022-08-22T05:01:16.898Z,2320.64
2022-08-22T05:02:16.985Z,2385.92
2022-08-22T05:03:17.135Z,2455.04
2022-08-22T05:04:17.238Z,2520.32
2022-08-22T05:05:17.336Z,2575.36
2022-08-22T05:06:17.446Z,2639.36
2022-08-22T05:07:17.589Z,2700.8
2022-08-22T05:08:17.697Z,2764.8
2022-08-22T05:09:17.795Z,2826.24
2022-08-22T05:10:17.901Z,2887.68
2022-08-22T05:11:18.025Z,2949.12
2022-08-22T05:12:18.152Z,3018.24
2022-08-22T05:13:18.307Z,3079.68
2022-08-22T05:14:18.461Z,3146.24
2022-08-22T05:15:18.940Z,3220.48
2022-08-22T05:16:18.709Z,3289.6
2022-08-22T05:17:18.860Z,3361.28
2022-08-22T05:18:19.014Z,3427.84
2022-08-22T05:19:25.055Z,3504.64
2022-08-22T05:20:19.273Z,3584
2022-08-22T05:21:19.378Z,3653.12
2022-08-22T05:22:19.525Z,3747.84
2022-08-22T05:23:19.672Z,3847.68
2022-08-22T05:24:19.775Z,3944.96
2022-08-22T05:25:19.905Z,4049.92
2022-08-22T05:26:20.026Z,4116.48
2022-08-22T05:27:20.134Z,4129.28
2022-08-22T05:28:20.234Z,4162.56
2022-08-22T05:29:20.387Z,4208.64
2022-08-22T05:30:20.499Z,4308.48
2022-08-22T05:31:23.205Z,4390.4
2022-08-22T05:32:20.746Z,4441.6
2022-08-22T05:33:20.898Z,4528.64
2022-08-22T05:34:20.996Z,4618.24
2022-08-22T05:35:21.147Z,4697.6
2022-08-22T05:36:21.297Z,4769.28
2022-08-22T05:37:21.399Z,4881.92
2022-08-22T05:38:21.550Z,4974.08
2022-08-22T05:39:21.701Z,5084.16
2022-08-22T05:40:21.844Z,5166.08
2022-08-22T05:41:21.907Z,5230.08
2022-08-22T05:42:22.058Z,5314.56
2022-08-22T05:43:22.162Z,5401.6
2022-08-22T05:44:22.261Z,5488.64
2022-08-22T05:45:22.368Z,5560.32
2022-08-22T05:46:24.620Z,5642.24
2022-08-22T05:47:22.621Z,5744.64
2022-08-22T05:48:22.741Z,5877.76
2022-08-22T05:49:22.828Z,6016
2022-08-22T05:50:22.924Z,6164.48
2022-08-22T05:51:23.078Z,6272
2022-08-22T05:52:23.228Z,6343.68
2022-08-22T05:53:23.334Z,6384.64
2022-08-22T05:54:33.615Z,6563.84
2022-08-22T05:55:23.590Z,6686.72
2022-08-22T05:56:23.738Z,6773.76
2022-08-22T05:57:23.849Z,6906.88
2022-08-22T05:58:23.992Z,7019.52
2022-08-22T05:59:24.095Z,7127.04
2022-08-22T06:00:24.192Z,7162.88
2022-08-22T06:01:24.353Z,7214.08
2022-08-22T06:02:24.435Z,7270.4
2022-08-22T06:03:24.514Z,7290.88
2022-08-22T06:04:24.600Z,7326.72
2022-08-22T06:05:24.715Z,7352.32
2022-08-22T06:06:24.862Z,7377.92
2022-08-22T06:07:25.008Z,7408.64
2022-08-22T06:08:25.118Z,7505.92
2022-08-22T06:09:25.215Z,7552
2022-08-22T06:10:25.319Z,7633.92
2022-08-22T06:11:25.416Z,7633.92
2022-08-22T06:12:25.524Z,7690.24
2022-08-22T06:13:25.621Z,7767.04
2022-08-22T06:14:25.728Z,7828.48
2022-08-22T06:15:25.830Z,7848.96
2022-08-22T06:16:26.008Z,7895.04
2022-08-22T06:17:26.080Z,7956.48
2022-08-22T06:18:26.190Z,8079.36
2022-08-22T06:19:26.330Z,8125.44
2022-08-22T06:20:26.488Z,8176.64
2022-08-22T06:21:26.595Z,8248.32
2022-08-22T06:22:26.693Z,8289.28
2022-08-22T06:23:26.790Z,8330.24
2022-08-22T06:24:26.897Z,8366.08
2022-08-22T06:25:27.045Z,8401.92
2022-08-22T06:26:27.140Z,8448
2022-08-22T06:27:27.243Z,8514.56
2022-08-22T06:28:27.346Z,8550.399
2022-08-22T06:29:27.501Z,8596.479
2022-08-22T06:30:27.729Z,8637.439
2022-08-22T06:31:27.807Z,8688.64
2022-08-22T06:32:34.170Z,8739.84
2022-08-22T06:33:28.057Z,8755.2
2022-08-22T06:34:28.218Z,8750.08
2022-08-22T06:35:28.362Z,8811.52
2022-08-22T06:36:28.478Z,8801.28
2022-08-22T06:37:28.622Z,8832
2022-08-22T06:38:28.716Z,8862.72
2022-08-22T06:39:28.820Z,8929.28
2022-08-22T06:40:28.920Z,9016.319
2022-08-22T06:41:29.025Z,9057.28
2022-08-22T06:42:29.126Z,9139.2
2022-08-22T06:43:29.226Z,9231.359
2022-08-22T06:44:29.383Z,9287.68
2022-08-22T06:45:29.529Z,9369.6
2022-08-22T06:46:29.631Z,9482.24
2022-08-22T06:47:29.781Z,9574.399
2022-08-22T06:48:29.938Z,9687.04
2022-08-22T06:49:30.039Z,9758.72
2022-08-22T06:50:30.145Z,9922.56
2022-08-22T06:51:30.243Z,10086.399
2022-08-22T06:52:30.392Z,10275.84
2022-08-22T06:53:30.544Z,10393.6
2022-08-22T06:54:34.224Z,10577.92
2022-08-22T06:55:30.799Z,10670.08
2022-08-22T06:56:30.952Z,10823.68
2022-08-22T06:57:31.112Z,11192.319
2022-08-22T06:58:33.904Z,11489.279
2022-08-22T06:59:31.361Z,11683.84
2022-08-22T07:00:31.508Z,12001.279
2022-08-22T07:01:31.689Z,12144.64
2022-08-22T07:02:31.810Z,12206.08
2022-08-22T07:03:31.913Z,12308.479
2022-08-22T07:04:32.066Z,12513.279
2022-08-22T07:05:32.167Z,12564.479
2022-08-22T07:06:32.319Z,12595.2
2022-08-22T07:07:32.424Z,12707.84
2022-08-22T07:08:36.038Z,12759.04
2022-08-22T07:09:32.677Z,12779.52
2022-08-22T07:10:32.839Z,12820.479
2022-08-22T07:11:32.976Z,12892.16
2022-08-22T07:12:33.089Z,12974.08
2022-08-22T07:13:33.186Z,13834.239
2022-08-22T07:14:33.291Z,13936.64
2022-08-22T07:15:33.389Z,13864.96
2022-08-22T07:16:33.541Z,14039.04
2022-08-22T07:17:35.171Z,14039.04
2022-08-22T07:18:33.742Z,14018.56
2022-08-22T07:19:33.895Z,13987.84
2022-08-22T07:20:34.000Z,13936.64
2022-08-22T07:21:36.171Z,13967.359
2022-08-22T07:22:34.255Z,13967.359
2022-08-22T07:23:34.354Z,14090.239
2022-08-22T07:24:34.506Z,14059.52
2022-08-22T07:25:34.612Z,13864.96
2022-08-22T07:26:34.760Z,13342.72
2022-08-22T07:27:34.861Z,13783.04
2022-08-22T07:28:36.790Z,13455.359
2022-08-22T07:29:35.067Z,13742.08
2022-08-22T07:30:35.171Z,13762.56
2022-08-22T07:31:35.276Z,13762.56
2022-08-22T07:32:35.421Z,13772.8
2022-08-22T07:33:35.525Z,13803.52
2022-08-22T07:34:35.677Z,13742.08
2022-08-22T07:35:35.778Z,13312
2022-08-22T07:36:35.928Z,12994.56
2022-08-22T07:37:36.033Z,13332.479
2022-08-22T07:38:36.135Z,13271.04
2022-08-22T07:39:36.242Z,13219.84
2022-08-22T07:40:36.336Z,13199.359
2022-08-22T07:41:36.441Z,13137.92
2022-08-22T07:42:36.537Z,13035.52
2022-08-22T07:43:36.642Z,13004.8
2022-08-22T07:44:36.740Z,13025.279
2022-08-22T07:45:36.844Z,13076.479
2022-08-22T07:46:36.960Z,13199.359
2022-08-22T07:47:37.056Z,13148.16
2022-08-22T07:48:48.613Z,13045.76
2022-08-22T07:49:37.249Z,13168.64
2022-08-22T07:50:37.355Z,13148.16
2022-08-22T07:51:37.459Z,12922.88
2022-08-22T07:52:37.609Z,12871.68
2022-08-22T07:53:37.761Z,12533.76
2022-08-22T07:54:37.866Z,12021.76
2022-08-22T07:55:42.263Z,11847.68
2022-08-22T07:56:38.166Z,12042.239
2022-08-22T07:57:38.271Z,12482.56
2022-08-22T07:58:38.376Z,12718.08
2022-08-22T07:59:38.522Z,12810.239
2022-08-22T08:00:38.635Z,12871.68
2022-08-22T08:01:38.826Z,13844.479
2022-08-22T08:02:38.876Z,13895.68
2022-08-22T08:03:39.032Z,13936.64
2022-08-22T08:04:40.523Z,13895.68
2022-08-22T08:05:39.281Z,13967.359
2022-08-22T08:06:39.412Z,14008.319
2022-08-22T08:07:39.539Z,14039.04
2022-08-22T08:08:39.644Z,14039.04
2022-08-22T08:09:39.741Z,14254.08
2022-08-22T08:10:39.899Z,14356.479
2022-08-22T08:11:40.005Z,14448.64
2022-08-22T08:12:40.103Z,14489.6
2022-08-22T08:13:40.199Z,14663.68
2022-08-22T08:14:40.306Z,14878.72
2022-08-22T08:15:40.454Z,14940.159
2022-08-22T08:16:40.613Z,14970.88
2022-08-22T08:17:40.759Z,15421.439
2022-08-22T08:18:40.858Z,15370.239
2022-08-22T08:19:41.016Z,15667.199
2022-08-22T08:20:41.164Z,15892.479
2022-08-22T08:21:41.320Z,16148.479
2022-08-22T08:22:41.417Z,16537.6
2022-08-22T08:23:41.517Z,16660.48
2022-08-22T08:24:44.228Z,16957.44
2022-08-22T08:25:41.773Z,16957.44
2022-08-22T08:26:41.875Z,16568.32
2022-08-22T08:27:41.975Z,16680.96
2022-08-22T08:28:42.079Z,17121.28
2022-08-22T08:29:42.191Z,17735.68
2022-08-22T08:30:42.283Z,17684.48
2022-08-22T08:31:43.023Z,18165.76
2022-08-22T08:32:42.540Z,18554.88
2022-08-22T08:33:42.692Z,18872.32
2022-08-22T08:34:42.788Z,19087.36
2022-08-22T08:36:01.843Z,19558.4
2022-08-22T08:36:43.008Z,19804.16
2022-08-22T08:37:43.096Z,20213.76
2022-08-22T08:38:43.248Z,20305.92
2022-08-22T08:39:43.449Z,20183.04
2022-08-22T08:40:43.502Z,21544.96
2022-08-22T08:41:43.654Z,22056.96
2022-08-22T08:42:43.761Z,22282.24
2022-08-22T08:43:43.856Z,22732.8
2022-08-22T08:44:44.010Z,23040
2022-08-22T08:45:44.111Z,23326.72
2022-08-22T08:46:46.226Z,23613.44
2022-08-22T08:47:44.368Z,24309.76
2022-08-22T08:48:44.527Z,24576
2022-08-22T08:49:44.671Z,24903.68
2022-08-22T08:50:44.822Z,25292.8
2022-08-22T08:51:44.959Z,25579.52
2022-08-22T08:52:45.029Z,25825.28
2022-08-22T08:53:45.132Z,25436.16
2022-08-22T08:54:45.231Z,25292.8
2022-08-22T08:55:45.333Z,25743.36
2022-08-22T08:56:47.161Z,26787.84
2022-08-22T08:57:45.587Z,26726.4
2022-08-22T08:58:45.691Z,26951.68
2022-08-22T08:59:45.813Z,27217.92
2022-08-22T09:00:45.951Z,27443.2
2022-08-22T09:01:46.159Z,28078.08
2022-08-22T09:02:46.147Z,28303.36
2022-08-22T09:03:46.244Z,27832.32
2022-08-22T09:04:46.396Z,23142.4
2022-08-22T09:05:46.551Z,28631.04
2022-08-22T09:06:50.749Z,29306.88
2022-08-22T09:07:46.859Z,29388.8
2022-08-22T09:08:47.006Z,30371.84
2022-08-22T09:09:52.458Z,31457.28
2022-08-22T09:10:47.209Z,33095.68
2022-08-22T09:11:47.843Z,34754.56
2022-08-22T09:12:56.354Z,36065.28
2022-08-22T09:13:47.515Z,38051.84
2022-08-22T09:14:47.624Z,25169.92
2022-08-22T09:15:54.908Z,41820.16
2022-08-22T09:16:50.145Z,35942.4
2022-08-22T09:17:47.992Z,42639.36
2022-08-22T09:18:48.150Z,44359.68
2022-08-22T09:19:48.238Z,45342.72
2022-08-22T09:20:48.381Z,45096.96
2022-08-22T09:21:48.491Z,45998.08
2022-08-22T09:22:49.953Z,46489.6
2022-08-22T09:23:48.736Z,44032
2022-08-22T09:24:48.837Z,26624
2022-08-22T09:25:48.985Z,34058.24
2022-08-22T09:26:49.094Z,37888
2022-08-22T09:27:49.194Z,45096.96
2022-08-22T09:28:49.294Z,47964.16
2022-08-22T09:29:51.588Z,49766.4
2022-08-22T09:30:54.072Z,52264.96
2022-08-22T09:31:52.052Z,52551.68
2022-08-22T09:32:49.800Z,47595.52
2022-08-22T09:33:49.904Z,45629.44
2022-08-22T09:34:50.004Z,40366.08
2022-08-22T09:35:50.162Z,42885.12
2022-08-22T09:36:50.296Z,53166.08
2022-08-22T09:37:50.410Z,36700.16
2022-08-22T09:38:50.561Z,40181.76
2022-08-22T09:39:50.694Z,41635.84
2022-08-22T09:40:50.772Z,44441.6
2022-08-22T09:41:51.689Z,45547.52
2022-08-22T09:42:51.034Z,43950.08
2022-08-22T09:43:51.120Z,46120.96
2022-08-22T09:44:51.227Z,38952.96
2022-08-22T09:45:51.356Z,39116.8
2022-08-22T09:46:51.479Z,37273.6
2022-08-22T09:47:51.578Z,36065.28
2022-08-22T09:48:51.733Z,34775.04
2022-08-22T09:49:51.883Z,32993.28
2022-08-22T09:50:52.648Z,31682.56
2022-08-22T09:51:52.137Z,30965.76
2022-08-22T09:52:52.240Z,31088.64
2022-08-22T09:53:53.094Z,31252.48
2022-08-22T09:54:52.547Z,31641.6
2022-08-22T09:55:52.657Z,31703.04
2022-08-22T09:56:52.746Z,32010.24
2022-08-22T09:57:52.925Z,32133.12
2022-08-22T09:58:52.998Z,32378.88
2022-08-22T09:59:53.100Z,32931.84
2022-08-22T10:00:54.747Z,33525.76
2022-08-22T10:01:53.362Z,34078.72
2022-08-22T10:02:53.513Z,34836.48
2022-08-22T10:03:53.657Z,35799.04
2022-08-22T10:04:53.764Z,37068.8
2022-08-22T10:05:53.861Z,36229.12
2022-08-22T10:06:54.023Z,35942.4
2022-08-22T10:07:54.163Z,35532.8
2022-08-22T10:08:54.268Z,35430.4
2022-08-22T10:09:54.899Z,35471.36
2022-08-22T10:10:54.525Z,35676.16
2022-08-22T10:11:54.629Z,35942.4
2022-08-22T10:12:54.724Z,36474.88
2022-08-22T10:13:57.292Z,37191.68
2022-08-22T10:14:54.982Z,37621.76
2022-08-22T10:15:55.085Z,38522.88
2022-08-22T10:16:55.241Z,39096.32
2022-08-22T10:17:55.336Z,39485.44
2022-08-22T10:18:57.941Z,41635.84
2022-08-22T10:19:55.846Z,41943.04
2022-08-22T10:20:55.810Z,44072.96
2022-08-22T10:21:55.845Z,43909.12
2022-08-22T10:22:55.955Z,46776.32
2022-08-22T10:23:56.050Z,46817.28
2022-08-22T10:24:56.199Z,46366.72
2022-08-22T10:25:56.306Z,54231.04
2022-08-22T10:26:56.478Z,54517.76
2022-08-22T10:27:56.604Z,48660.48
2022-08-22T10:28:56.705Z,47759.36
2022-08-22T10:29:56.862Z,48209.92
2022-08-22T10:30:56.960Z,51732.48
2022-08-22T10:31:58.457Z,47431.68
2022-08-22T10:32:57.216Z,45588.48
2022-08-22T10:33:57.370Z,51568.64
2022-08-22T10:34:57.718Z,47595.52
2022-08-22T10:35:57.574Z,45670.4
2022-08-22T10:36:57.721Z,46284.8
2022-08-22T10:37:57.824Z,44277.76
2022-08-22T10:38:57.987Z,42188.8
2022-08-22T10:39:58.097Z,39874.56
2022-08-22T10:40:58.194Z,40099.84
2022-08-22T10:41:58.286Z,40304.64
2022-08-22T10:42:59.216Z,41635.84
2022-08-22T10:44:00.631Z,44482.56
2022-08-22T10:44:58.687Z,47759.36
2022-08-22T10:45:58.789Z,51568.64
2022-08-22T10:46:58.922Z,44482.56
2022-08-22T10:47:58.997Z,54312.96
2022-08-22T10:48:59.101Z,53288.96
2022-08-22T10:49:59.203Z,57425.92
2022-08-22T10:50:59.313Z,62464
2022-08-22T10:52:00.024Z,61890.56
2022-08-22T10:52:59.658Z,56156.16
2022-08-22T10:53:59.736Z,59310.08
2022-08-22T10:54:59.828Z,61030.4
2022-08-22T10:55:59.930Z,56893.44
2022-08-22T10:57:00.087Z,56729.6
2022-08-22T10:58:00.159Z,54599.68
2022-08-22T10:59:01.026Z,50094.08
2022-08-22T11:00:00.422Z,51363.84
2022-08-22T11:01:00.605Z,51077.12
2022-08-22T11:02:01.052Z,51568.64
2022-08-22T11:03:00.949Z,53248
2022-08-22T11:04:00.930Z,52469.76
2022-08-22T11:05:01.035Z,49111.04
2022-08-22T11:06:01.180Z,46940.16
2022-08-22T11:07:01.291Z,46530.56
2022-08-22T11:08:01.433Z,45301.76
2022-08-22T11:09:01.550Z,44277.76
2022-08-22T11:10:01.688Z,44318.72
2022-08-22T11:11:01.879Z,43663.36
2022-08-22T11:12:01.995Z,43130.88
2022-08-22T11:13:02.152Z,43253.76
2022-08-22T11:14:02.245Z,43622.4
2022-08-22T11:15:02.927Z,43786.24
2022-08-22T11:16:04.125Z,43745.28
2022-08-22T11:17:02.558Z,43704.32
2022-08-22T11:18:02.653Z,43909.12
2022-08-22T11:19:04.974Z,44974.08
2022-08-22T11:20:02.857Z,44892.16
2022-08-22T11:21:03.030Z,46366.72
2022-08-22T11:22:03.734Z,45711.36
2022-08-22T11:23:03.266Z,44154.88
2022-08-22T11:24:03.372Z,46981.12
2022-08-22T11:25:04.556Z,46776.32
2022-08-22T11:26:04.083Z,47185.92
2022-08-22T11:27:03.769Z,46694.4
2022-08-22T11:28:03.924Z,50421.76
2022-08-22T11:29:13.118Z,52346.88
2022-08-22T11:30:04.238Z,53903.36
2022-08-22T11:31:07.131Z,55869.44
2022-08-22T11:32:05.915Z,57876.48
2022-08-22T11:33:04.896Z,60866.56
2022-08-22T11:34:04.738Z,61562.88
2022-08-22T11:35:04.890Z,63569.92
2022-08-22T11:36:04.990Z,68239.36
2022-08-22T11:37:11.164Z,70492.16
2022-08-22T11:38:05.250Z,71680
2022-08-22T11:39:05.397Z,52469.76
2022-08-22T11:40:05.533Z,58900.48
2022-08-22T11:41:05.689Z,44769.28
2022-08-22T11:42:05.754Z,45383.68
2022-08-22T11:43:06.280Z,48128
2022-08-22T11:44:06.007Z,44359.68
2022-08-22T11:45:06.154Z,44769.28
2022-08-22T11:46:06.306Z,45588.48
2022-08-22T11:47:06.415Z,50708.48
2022-08-22T11:48:06.512Z,47718.4
2022-08-22T11:49:06.662Z,41390.08
2022-08-22T11:50:07.128Z,39383.04
2022-08-22T11:51:13.061Z,40448
2022-08-22T11:52:07.024Z,38912
2022-08-22T11:53:07.681Z,36679.68
2022-08-22T11:54:07.281Z,33464.32
2022-08-22T11:55:07.435Z,31129.6
2022-08-22T11:56:07.579Z,29552.64
2022-08-22T11:57:07.676Z,28323.84
2022-08-22T11:58:07.811Z,27320.32
2022-08-22T11:59:07.931Z,27340.8
2022-08-22T12:00:08.034Z,27258.88
2022-08-22T12:01:10.683Z,28241.92
2022-08-22T12:02:08.389Z,29634.56
2022-08-22T12:03:08.350Z,28835.84
2022-08-22T12:04:09.796Z,28364.8
2022-08-22T12:05:08.644Z,28200.96
2022-08-22T12:06:08.798Z,28303.36
2022-08-22T12:07:08.893Z,28508.16
2022-08-22T12:08:09.047Z,28426.24
2022-08-22T12:09:09.153Z,27955.2
2022-08-22T12:10:13.468Z,27279.36
2022-08-22T12:11:09.406Z,26869.76
2022-08-22T12:12:09.554Z,26828.8
2022-08-22T12:13:09.655Z,26992.64
2022-08-22T12:14:09.811Z,27422.72
2022-08-22T12:15:09.967Z,27688.96
2022-08-22T12:16:10.066Z,27688.96
2022-08-22T12:17:10.169Z,28139.52
2022-08-22T12:18:10.319Z,28917.76
2022-08-22T12:19:10.472Z,29429.76
2022-08-22T12:20:17.274Z,29204.48
2022-08-22T12:21:10.680Z,28180.48
2022-08-22T12:22:10.780Z,29184
2022-08-22T12:23:10.881Z,30822.4
2022-08-22T12:24:11.151Z,30556.16
2022-08-22T12:25:11.079Z,35799.04